Perry County Municipal, IN

12:55 PM CDT on October 31, 2014 (GMT -0500)
Huntingburg | Change Station
CLOSE
Current Station
Airport
Location: Huntingburg,
Elevation: 528 ft
Nearby Weather Stations
Active Advisory: Freeze Warning, Special Statement

Elev 528 ft 38.25 °N, 86.95 °W | Updated 20 minutes ago

Overcast
Overcast
41 °F
Feels Like 32 °F
N
18
Wind Variable Wind from North
Gusts 28 mph

Today
High -- | Low -- °F
--% Chance of Precip.
Yesterday
High -- | Low -- °F
Precip. -- in
7:11 AM 5:48 PM
First Quarter, 57% visible
Pressure 30.08 in
Visibility 10.0 miles
Clouds Mostly Cloudy 2000 ft
Overcast 3400 ft
Windchill 32 °F
Dew Point 34 °F
Humidity 76%
Rainfall 0.00 in
Snow Depth Not available.
UV 1 out of 12
Pollen .90 out of 12
Air Quality Not available.
Flu Activity Not available.
METAR KHNB 311735Z AUTO 35016G24KT 10SM BKN020 OVC034 05/01 A3008 RMK AO1

More Conditions Fewer Conditions

Pressure 30.08 in
Visibility 10.0 miles
Clouds Mostly Cloudy 2000 ft
Overcast 3400 ft
Windchill 32 °F
Dew Point 34 °F
Humidity 76%
Rainfall 0.00 in
Snow Depth Not available.
UV 1 out of 12
Pollen .90 out of 12
Air Quality Not available.
Flu Activity Not available.
METAR KHNB 311735Z AUTO 35016G24KT 10SM BKN020 OVC034 05/01 A3008 RMK AO1

More Conditions Fewer Conditions

10-Day Weather Forecast

Almanac

Astronomy

Oct. 31, 2014 Rise Set
Actual Time
Civil Twilight
Nautical Twilight
Astronomical Twilight
Moon
Length of Visible Light
Length of Day
Tomorrow will be .
, % of the Moon is Illuminated

Today's Extremes

State Highs State Lows

Community

WunderPhotos

Upload Photos

1,766,673 photos uploaded!

WunderBlogs® & News

Nearby

Air Quality

  Air Quality AQ Index Pollutant
Not available.

Snow Depth

Station Depth Elevation

Earthquake Activity

City Distance Mag. Time & Date
Minimum magnitude displayed is 2.5.

Coastal Water Temperatures

Place Temperature

Nearby Weather Stations